Time;durP1;ratioP1;P1;durP2;ratioP2;P2;SDS_P1;SDS_P2;PMS_P1;PMS_P2;Temp;Humidity;BMP_temperature;BMP_pressure;BME280_temperature;BME280_humidity;BME280_pressure;Samples;Min_cycle;Max_cycle;Signal;HPM_P1;HPM_P2
2021/06/22 00:02:00;;;;;;;9.98;5.25;;;;;;;12.38;66.63;101694.59;4136135;28;20033;-86
2021/06/22 00:04:01;;;;;;;8.48;5.43;;;;;;;12.43;66.59;101694.78;4131631;28;20058;-83
2021/06/22 00:06:01;;;;;;;10.27;5.90;;;;;;;12.32;66.94;101681.72;4130512;28;20034;-85
2021/06/22 00:08:02;;;;;;;9.93;5.88;;;;;;;12.39;67.29;101707.28;4136710;28;20122;-85
2021/06/22 00:10:04;;;;;;;9.15;5.78;;;;;;;12.31;67.21;101693.75;4138223;28;20030;-84
2021/06/22 00:12:05;;;;;;;6.38;5.47;;;;;;;12.19;67.52;101689.97;4129114;28;20038;-87
2021/06/22 00:14:05;;;;;;;7.55;5.20;;;;;;;12.25;67.55;101694.59;4139554;28;20620;-87
2021/06/22 00:16:06;;;;;;;11.48;5.93;;;;;;;12.17;67.89;101681.94;4144823;28;20038;-86
2021/06/22 00:18:06;;;;;;;12.65;6.70;;;;;;;12.07;68.10;101679.63;4144549;28;20085;-85
2021/06/22 00:20:08;;;;;;;11.35;5.68;;;;;;;12.22;67.82;101692.28;4138269;28;20042;-85
2021/06/22 00:22:09;;;;;;;10.93;5.85;;;;;;;12.22;67.45;101686.78;4138139;28;20040;-89
2021/06/22 00:24:09;;;;;;;11.93;5.65;;;;;;;12.15;68.07;101680.50;4110273;28;20039;-85
2021/06/22 00:26:10;;;;;;;7.60;5.47;;;;;;;12.19;67.83;101690.81;4128244;28;20045;-86
2021/06/22 00:28:10;;;;;;;9.13;5.80;;;;;;;12.27;67.43;101690.59;4132041;28;20038;-88
2021/06/22 00:30:12;;;;;;;10.52;5.20;;;;;;;12.29;67.31;101687.63;4134819;28;20039;-82
2021/06/22 00:32:12;;;;;;;15.30;7.07;;;;;;;12.15;67.32;101697.78;4141796;28;20046;-85
2021/06/22 00:34:15;;;;;;;14.88;6.15;;;;;;;12.09;67.09;101679.44;4140289;28;20088;-86
2021/06/22 00:36:15;;;;;;;13.48;5.90;;;;;;;12.07;67.10;101679.63;4142375;28;20030;-87
2021/06/22 00:38:16;;;;;;;9.23;6.75;;;;;;;12.18;66.70;101689.13;4143674;28;20026;-85
2021/06/22 00:40:17;;;;;;;11.85;7.35;;;;;;;12.22;66.94;101697.78;4123626;28;20404;-89
2021/06/22 00:42:17;;;;;;;11.40;5.70;;;;;;;12.08;67.38;101681.34;4139181;28;20532;-84
2021/06/22 00:44:18;;;;;;;10.27;6.50;;;;;;;12.22;67.16;101706.88;4129990;28;20057;-86
2021/06/22 00:46:18;;;;;;;13.25;6.45;;;;;;;12.16;66.85;101690.38;4136189;28;20031;-84
2021/06/22 00:48:18;;;;;;;15.98;7.18;;;;;;;12.31;66.62;101701.97;4129717;28;20038;-84
2021/06/22 00:50:19;;;;;;;8.85;4.95;;;;;;;12.25;66.66;101689.97;4135684;28;20030;-87
2021/06/22 00:52:22;;;;;;;10.60;6.45;;;;;;;12.01;67.08;101688.72;4133823;28;20041;-88
2021/06/22 00:54:22;;;;;;;15.30;5.60;;;;;;;12.27;66.84;101700.75;4136870;28;20037;-86
2021/06/22 00:56:23;;;;;;;10.45;5.40;;;;;;;12.26;67.08;101691.66;4132862;28;20475;-84
2021/06/22 00:58:27;;;;;;;9.43;6.60;;;;;;;12.29;66.93;101693.13;4141743;28;20464;-86
2021/06/22 01:00:28;;;;;;;13.40;5.30;;;;;;;12.17;67.05;101698.41;4132006;28;20038;-85
2021/06/22 01:02:29;;;;;;;9.32;5.72;;;;;;;12.22;67.15;101687.66;4135834;28;20038;-87
2021/06/22 01:04:30;;;;;;;17.70;5.88;;;;;;;12.09;67.13;101680.25;4148323;28;20033;-86
2021/06/22 01:06:30;;;;;;;10.68;5.47;;;;;;;12.24;67.08;101701.16;4135494;28;20129;-84
2021/06/22 01:08:33;;;;;;;10.90;4.95;;;;;;;12.27;66.90;101692.50;4138073;28;20053;-86
2021/06/22 01:10:33;;;;;;;10.85;6.30;;;;;;;12.26;66.81;101694.38;4112205;28;20038;-87
2021/06/22 01:12:34;;;;;;;13.93;6.85;;;;;;;12.23;66.96;101702.22;4134362;28;20027;-84
2021/06/22 01:14:40;;;;;;;12.52;6.05;;;;;;;12.22;66.99;101698.63;4135300;28;20041;-86
2021/06/22 01:16:41;;;;;;;11.85;6.55;;;;;;;12.18;66.88;101686.38;4135494;28;20030;-87
2021/06/22 01:18:41;;;;;;;10.68;5.32;;;;;;;12.03;66.67;101677.53;4137691;28;20123;-90
2021/06/22 01:20:42;;;;;;;15.02;5.80;;;;;;;11.89;66.86;101699.47;4137316;28;20066;-86
2021/06/22 01:22:44;;;;;;;11.80;5.55;;;;;;;11.95;66.37;101680.50;4139545;28;20042;-88
2021/06/22 01:24:45;;;;;;;11.02;6.28;;;;;;;12.05;65.95;101692.75;4125895;28;20085;-86
2021/06/22 01:27:04;;;;;;;10.27;4.88;;;;;;;12.23;65.71;101702.22;4131412;28;20115;-86
2021/06/22 01:29:08;;;;;;;9.77;5.43;;;;;;;12.24;66.02;101696.50;4136882;28;20063;-86
2021/06/22 01:31:12;;;;;;;8.88;4.78;;;;;;;12.15;65.96;101680.50;4130329;28;20125;-88
2021/06/22 01:33:12;;;;;;;13.95;6.15;;;;;;;12.02;65.93;101675.84;4131886;28;20042;-87
2021/06/22 01:35:13;;;;;;;8.45;5.00;;;;;;;12.18;65.47;101691.03;4127394;28;20065;-90
2021/06/22 01:37:14;;;;;;;8.75;5.78;;;;;;;12.21;65.69;101682.38;4113965;28;20101;-86
2021/06/22 01:39:18;;;;;;;9.70;5.32;;;;;;;12.10;65.61;101672.91;4138010;28;20050;-86
2021/06/22 01:41:18;;;;;;;11.25;5.95;;;;;;;12.12;65.30;101679.00;4136154;28;20472;-84
2021/06/22 01:43:23;;;;;;;7.63;5.45;;;;;;;12.21;65.15;101685.13;4131370;28;20049;-90
2021/06/22 01:45:30;;;;;;;16.00;7.20;;;;;;;12.04;65.28;101671.84;4139439;28;20751;-86
2021/06/22 01:47:30;;;;;;;17.13;7.20;;;;;;;12.19;65.21;101704.56;4139039;28;20064;-84
2021/06/22 01:49:32;;;;;;;11.07;6.78;;;;;;;12.17;64.51;101701.16;4134555;28;20034;-86
2021/06/22 01:51:33;;;;;;;11.45;6.65;;;;;;;11.95;64.67;101672.28;4132019;28;20042;-87
2021/06/22 01:53:34;;;;;;;11.10;5.78;;;;;;;11.95;64.55;101675.84;4135370;28;20053;-88
2021/06/22 01:57:35;;;;;;;15.18;7.65;;;;;;;12.00;64.18;101686.19;4135905;28;20038;-86
2021/06/22 01:59:39;;;;;;;13.75;8.80;;;;;;;11.93;63.96;101706.25;4136364;28;20384;-83
2021/06/22 02:01:42;;;;;;;11.63;7.70;;;;;;;12.01;63.60;101718.91;4134754;28;20054;-87
2021/06/22 02:03:42;;;;;;;14.50;8.40;;;;;;;11.88;63.80;101678.59;4136839;28;20447;-90
2021/06/22 02:05:43;;;;;;;11.15;7.60;;;;;;;11.95;63.78;101695.06;4136946;28;20040;-84
2021/06/22 02:07:43;;;;;;;14.70;8.38;;;;;;;12.04;63.89;101706.66;4142378;28;20115;-87
2021/06/22 02:09:44;;;;;;;11.98;8.07;;;;;;;12.00;63.96;101702.66;4126742;28;20093;-87
2021/06/22 02:11:44;;;;;;;13.52;9.38;;;;;;;11.91;64.38;101710.25;4138877;28;20416;-88
2021/06/22 02:13:46;;;;;;;16.55;10.07;;;;;;;11.93;64.21;101695.28;4124835;28;20037;-89
2021/06/22 02:15:47;;;;;;;20.52;8.52;;;;;;;11.94;64.14;101715.31;4122170;28;20034;-86
2021/06/22 02:17:48;;;;;;;13.70;10.43;;;;;;;11.90;64.67;101719.53;4130157;28;20042;-87
2021/06/22 02:19:50;;;;;;;18.30;10.18;;;;;;;11.77;64.36;101717.66;4131808;28;20408;-89
2021/06/22 02:21:50;;;;;;;18.85;10.95;;;;;;;11.72;64.52;101701.78;4134700;28;20469;-87
2021/06/22 02:23:51;;;;;;;14.85;10.65;;;;;;;11.82;64.52;101717.84;4115103;28;20046;-89
2021/06/22 02:25:51;;;;;;;19.25;13.00;;;;;;;11.82;64.55;101714.25;4138779;28;20026;-88
2021/06/22 02:28:19;;;;;;;14.40;10.85;;;;;;;11.75;64.46;101709.59;4140929;28;20518;-87
2021/06/22 02:30:20;;;;;;;14.93;10.63;;;;;;;11.65;64.55;101698.19;4131346;28;20034;-90
2021/06/22 02:32:21;;;;;;;17.88;12.63;;;;;;;11.66;64.35;101701.75;4136807;28;20539;-88
2021/06/22 02:34:22;;;;;;;15.93;12.15;;;;;;;11.78;64.47;101707.50;4133444;28;20059;-87
2021/06/22 02:36:24;;;;;;;18.00;12.43;;;;;;;11.64;64.20;101684.69;4134539;28;20034;-88
2021/06/22 02:38:28;;;;;;;19.60;13.93;;;;;;;11.74;64.29;101705.16;4137821;28;20041;-87
2021/06/22 02:40:29;;;;;;;19.27;13.60;;;;;;;11.79;64.35;101709.22;4123971;28;20042;-89
2021/06/22 02:42:30;;;;;;;18.92;13.88;;;;;;;11.65;64.46;101711.91;4133606;28;20029;-86
2021/06/22 02:44:30;;;;;;;18.65;11.68;;;;;;;11.70;64.52;101709.34;4130709;28;20630;-87
2021/06/22 02:46:31;;;;;;;20.95;11.95;;;;;;;11.55;64.53;101686.78;4135231;28;20034;-86
2021/06/22 02:48:32;;;;;;;23.90;14.73;;;;;;;11.67;64.50;101708.94;4134456;28;20038;-89
2021/06/22 02:50:33;;;;;;;19.90;14.82;;;;;;;11.60;64.37;101697.09;4114863;28;20039;-88
2021/06/22 02:52:34;;;;;;;22.50;16.52;;;;;;;11.64;64.52;101718.41;4132952;28;20085;-88
2021/06/22 02:54:37;;;;;;;18.55;13.98;;;;;;;11.68;64.67;101724.34;4133877;28;20034;-88
2021/06/22 02:56:38;;;;;;;20.80;15.63;;;;;;;11.48;64.85;101699.63;4132263;28;20026;-88
2021/06/22 02:58:38;;;;;;;26.40;16.92;;;;;;;11.53;65.13;101703.44;4134641;28;20082;-87
2021/06/22 03:00:39;;;;;;;22.73;13.73;;;;;;;11.49;65.64;101693.94;4127583;28;20053;-87
2021/06/22 03:02:39;;;;;;;19.98;13.00;;;;;;;11.33;66.06;101692.41;4117247;28;20041;-90
2021/06/22 03:04:40;;;;;;;23.17;16.52;;;;;;;11.34;65.73;101679.59;4142196;28;20626;-87
2021/06/22 03:06:41;;;;;;;19.90;16.38;;;;;;;11.33;65.68;101691.59;4136109;28;20054;-87
2021/06/22 03:08:41;;;;;;;26.15;16.52;;;;;;;11.29;65.80;101688.44;4136666;28;20085;-87
2021/06/22 03:10:42;;;;;;;24.77;16.23;;;;;;;11.43;65.82;101700.25;4138917;28;20030;-86
2021/06/22 03:12:42;;;;;;;23.52;17.27;;;;;;;11.44;65.90;101696.44;4123605;28;20116;-87
2021/06/22 03:14:43;;;;;;;21.10;16.38;;;;;;;11.22;66.28;101671.94;4136732;28;20030;-87
2021/06/22 03:16:44;;;;;;;21.40;16.23;;;;;;;11.20;66.42;101684.19;4126498;28;20511;-87
2021/06/22 03:18:45;;;;;;;20.98;17.38;;;;;;;11.26;66.50;101694.31;4135909;28;20086;-87
2021/06/22 03:20:46;;;;;;;22.95;17.58;;;;;;;11.25;66.63;101695.34;4134565;28;20046;-87
2021/06/22 03:22:47;;;;;;;25.02;16.88;;;;;;;11.29;66.41;101701.25;4120598;28;20042;-87
2021/06/22 03:24:48;;;;;;;26.17;19.35;;;;;;;11.19;66.59;101690.69;4116621;28;20431;-85
2021/06/22 03:26:48;;;;;;;25.02;19.50;;;;;;;11.06;66.53;101679.69;4115982;28;20027;-86
2021/06/22 03:28:49;;;;;;;27.20;20.33;;;;;;;11.11;66.57;101697.22;4116483;28;20034;-86
2021/06/22 03:30:49;;;;;;;26.67;19.50;;;;;;;11.19;66.81;101701.66;4123946;28;20071;-93
2021/06/22 03:32:50;;;;;;;29.77;19.27;;;;;;;11.05;66.75;101706.25;4122806;28;20392;-88
2021/06/22 03:34:50;;;;;;;27.25;18.35;;;;;;;10.93;66.53;101702.41;4117469;28;20060;-88
2021/06/22 03:36:51;;;;;;;27.48;19.55;;;;;;;10.95;66.23;101698.44;4118176;28;20452;-86
2021/06/22 03:38:52;;;;;;;24.98;22.17;;;;;;;11.07;65.90;101717.00;4114708;28;20035;-86
2021/06/22 03:40:52;;;;;;;26.00;20.80;;;;;;;11.00;65.70;101711.50;4119028;28;20039;-85
2021/06/22 03:42:52;;;;;;;23.55;19.05;;;;;;;10.87;65.87;101704.06;4127546;28;20133;-85
2021/06/22 03:44:53;;;;;;;30.83;23.85;;;;;;;10.98;65.56;101725.41;4116029;28;21385;-84
2021/06/22 03:46:53;;;;;;;27.10;18.33;;;;;;;10.91;65.14;101710.00;4101398;28;20080;-87
2021/06/22 03:48:54;;;;;;;24.05;20.38;;;;;;;10.81;65.05;101704.88;4111960;28;20046;-84
2021/06/22 03:50:54;;;;;;;30.90;19.80;;;;;;;10.87;65.30;101725.97;4125658;28;20089;-89
2021/06/22 03:52:55;;;;;;;26.58;18.75;;;;;;;10.80;65.05;101700.47;4136529;28;20096;-87
2021/06/22 03:54:55;;;;;;;31.77;21.00;;;;;;;11.01;64.74;101725.00;4113151;28;20035;-89
2021/06/22 03:56:56;;;;;;;30.17;19.83;;;;;;;11.03;64.48;101753.03;4123815;28;20035;-88
2021/06/22 03:58:56;;;;;;;22.73;18.38;;;;;;;11.06;64.13;101748.19;4117530;28;20556;-88
2021/06/22 04:00:56;;;;;;;33.33;20.05;;;;;;;11.08;64.01;101757.06;4091100;28;20043;-89
2021/06/22 04:02:59;;;;;;;26.77;20.27;;;;;;;11.16;63.80;101759.63;4121908;28;20093;-87
2021/06/22 04:05:00;;;;;;;27.52;19.75;;;;;;;10.95;63.44;101727.69;4123235;28;20022;-87
2021/06/22 04:07:00;;;;;;;25.08;20.08;;;;;;;11.00;63.78;101747.97;4119687;28;20039;-88
2021/06/22 04:09:00;;;;;;;24.33;18.70;;;;;;;11.07;63.34;101777.28;4098749;28;20036;-86
2021/06/22 04:11:01;;;;;;;24.45;16.77;;;;;;;11.09;63.20;101770.56;4118902;28;20576;-86
2021/06/22 04:13:02;;;;;;;29.90;19.95;;;;;;;10.97;62.96;101763.97;4116969;28;20564;-88
2021/06/22 04:15:03;;;;;;;26.23;18.25;;;;;;;11.16;62.86;101776.91;4101796;28;20054;-88
2021/06/22 04:17:03;;;;;;;25.60;16.52;;;;;;;11.18;62.87;101774.81;4118216;28;20459;-85
2021/06/22 04:19:04;;;;;;;21.48;15.52;;;;;;;11.11;62.33;101764.88;4120354;28;20031;-87
2021/06/22 04:21:04;;;;;;;29.13;19.45;;;;;;;11.26;62.27;101768.31;4119879;28;20043;-85
2021/06/22 04:23:08;;;;;;;21.75;17.92;;;;;;;11.30;62.15;101775.06;4119845;28;20280;-86
2021/06/22 04:25:10;;;;;;;22.45;17.08;;;;;;;11.27;61.76;101761.75;4122332;28;20045;-87
2021/06/22 04:27:11;;;;;;;25.95;19.73;;;;;;;11.27;61.42;101761.75;4111534;28;20042;-88
2021/06/22 04:29:11;;;;;;;26.30;19.20;;;;;;;11.27;61.27;101753.53;4122527;28;20081;-89
2021/06/22 04:31:12;;;;;;;20.80;16.10;;;;;;;11.41;60.72;101773.63;4104587;28;20035;-86
2021/06/22 04:33:13;;;;;;;23.27;16.10;;;;;;;11.24;61.46;101751.22;4121534;28;20049;-90
2021/06/22 04:35:14;;;;;;;19.85;16.08;;;;;;;11.31;60.61;101770.44;4112381;28;20042;-90
2021/06/22 04:37:14;;;;;;;20.10;16.70;;;;;;;11.46;60.37;101760.16;4122090;28;20145;-88
2021/06/22 04:39:15;;;;;;;25.15;16.55;;;;;;;11.59;59.77;101745.63;4119043;28;20043;-88
2021/06/22 04:41:15;;;;;;;24.23;18.13;;;;;;;11.75;59.74;101764.44;4119228;28;20512;-85
2021/06/22 04:43:15;;;;;;;24.35;17.73;;;;;;;11.73;59.41;101744.59;4110193;28;20038;-88
2021/06/22 04:45:16;;;;;;;22.45;15.63;;;;;;;11.78;59.02;101743.16;4123101;28;20038;-84
2021/06/22 04:47:16;;;;;;;22.65;15.25;;;;;;;12.03;58.68;101763.44;4117846;28;20039;-87
2021/06/22 04:49:17;;;;;;;23.80;14.40;;;;;;;12.06;57.75;101764.91;4118203;28;20033;-87
2021/06/22 04:51:17;;;;;;;20.90;15.40;;;;;;;12.13;58.22;101771.25;4128519;28;20504;-90
2021/06/22 04:53:19;;;;;;;18.60;13.88;;;;;;;11.81;58.18;101734.53;4118165;28;20039;-85
2021/06/22 04:55:24;;;;;;;20.70;15.40;;;;;;;12.03;57.09;101743.38;4129517;28;20049;-88
2021/06/22 04:57:24;;;;;;;17.02;11.93;;;;;;;12.29;56.39;101754.34;4117198;28;20034;-86
2021/06/22 04:59:25;;;;;;;15.85;13.57;;;;;;;12.29;56.10;101750.78;4133853;28;20065;-90
2021/06/22 05:01:26;;;;;;;17.15;13.45;;;;;;;12.72;55.44;101764.03;4117669;28;20085;-87
2021/06/22 05:03:26;;;;;;;18.90;14.82;;;;;;;13.07;53.90;101772.00;4139946;28;20034;-87
2021/06/22 05:05:27;;;;;;;22.13;15.30;;;;;;;13.45;53.23;101764.84;4134522;28;20030;-88
2021/06/22 05:07:27;;;;;;;17.75;12.82;;;;;;;14.35;49.78;101747.28;4124768;28;20830;-87
2021/06/22 05:09:28;;;;;;;17.08;12.05;;;;;;;15.36;46.71;101755.31;4122559;28;20622;-88
2021/06/22 05:11:28;;;;;;;21.17;12.02;;;;;;;16.88;44.60;101767.72;4111426;28;20042;-87
2021/06/22 05:13:29;;;;;;;16.02;11.45;;;;;;;17.95;42.09;101759.03;4121446;28;20042;-86
2021/06/22 05:15:29;;;;;;;15.07;10.48;;;;;;;17.86;40.49;101749.44;4116479;28;20030;-88
2021/06/22 05:17:30;;;;;;;17.58;10.25;;;;;;;18.54;39.42;101769.72;4117256;28;20093;-90
2021/06/22 05:19:30;;;;;;;14.05;10.38;;;;;;;18.38;39.85;101763.09;4105558;28;20034;-86
2021/06/22 05:21:31;;;;;;;16.70;10.25;;;;;;;18.65;39.95;101759.63;4116011;28;20034;-86
2021/06/22 05:23:31;;;;;;;16.30;10.77;;;;;;;18.25;40.02;101778.09;4112467;28;20035;-87
2021/06/22 05:25:32;;;;;;;15.45;10.57;;;;;;;18.89;39.49;101774.09;4114169;28;20027;-89
2021/06/22 05:27:32;;;;;;;12.10;9.80;;;;;;;18.95;39.78;101770.28;4123814;28;20041;-90
2021/06/22 05:29:33;;;;;;;16.75;9.68;;;;;;;19.30;39.71;101771.03;4120970;28;20034;-88
2021/06/22 05:31:35;;;;;;;14.00;9.57;;;;;;;20.27;37.12;101780.34;4109376;28;20031;-87
2021/06/22 05:33:35;;;;;;;11.52;8.65;;;;;;;20.04;36.27;101778.78;4123132;28;20086;-87
2021/06/22 05:35:36;;;;;;;15.45;9.57;;;;;;;19.05;36.94;101764.06;4091867;29;20035;-87
2021/06/22 05:37:37;;;;;;;16.77;9.40;;;;;;;18.40;39.59;101791.41;4135248;28;20030;-86
2021/06/22 05:39:38;;;;;;;13.93;8.93;;;;;;;16.53;42.87;101771.31;4139336;28;20041;-86
2021/06/22 05:41:39;;;;;;;14.90;8.88;;;;;;;15.26;45.40;101808.25;4112967;28;20038;-86
2021/06/22 05:43:39;;;;;;;14.52;9.52;;;;;;;14.85;47.31;101783.06;4105036;28;20057;-84
2021/06/22 05:45:40;;;;;;;14.32;9.85;;;;;;;14.56;48.87;101787.34;4133056;28;20030;-88
2021/06/22 05:47:41;;;;;;;15.75;9.05;;;;;;;14.33;48.78;101804.50;4110819;28;20151;-85
2021/06/22 05:49:41;;;;;;;14.30;10.98;;;;;;;13.86;50.05;101783.66;4116483;28;20081;-91
2021/06/22 05:51:42;;;;;;;14.73;10.27;;;;;;;13.89;51.26;101783.22;4117869;28;20038;-89
2021/06/22 05:53:42;;;;;;;13.88;9.38;;;;;;;13.76;51.40;101808.03;4120684;28;20122;-92
2021/06/22 05:55:43;;;;;;;16.38;8.65;;;;;;;13.74;51.58;101798.34;4113054;28;20085;-88
2021/06/22 05:57:46;;;;;;;15.95;9.15;;;;;;;13.56;52.19;101801.81;4124385;28;20027;-90
2021/06/22 05:59:46;;;;;;;14.98;9.93;;;;;;;13.48;52.36;101789.16;4118675;28;20035;-91
2021/06/22 06:01:47;;;;;;;16.73;9.98;;;;;;;13.39;51.91;101788.56;4128514;28;20038;-90
2021/06/22 06:03:47;;;;;;;15.98;10.30;;;;;;;13.52;52.81;101806.91;4096976;28;20560;-92
2021/06/22 06:05:48;;;;;;;17.90;9.45;;;;;;;13.60;53.02;101816.81;4143651;28;20041;-88
2021/06/22 06:07:49;;;;;;;14.60;9.95;;;;;;;13.62;52.39;101815.53;4136511;28;20034;-90
2021/06/22 06:09:49;;;;;;;15.30;10.48;;;;;;;13.75;52.02;101811.88;4133748;28;20038;-86
2021/06/22 06:11:50;;;;;;;14.55;11.65;;;;;;;13.81;53.05;101832.13;4120411;28;20447;-88
2021/06/22 06:13:51;;;;;;;16.20;11.38;;;;;;;13.86;51.65;101811.16;4119125;28;20034;-92
2021/06/22 06:15:51;;;;;;;14.70;9.55;;;;;;;14.25;52.42;101813.88;4117458;28;20057;-92
2021/06/22 06:17:51;;;;;;;18.33;9.77;;;;;;;14.71;50.36;101828.34;4119530;28;20031;-87
2021/06/22 06:19:52;;;;;;;13.02;9.90;;;;;;;15.25;49.71;101809.34;4131664;28;20034;-89
2021/06/22 06:21:52;;;;;;;18.73;10.32;;;;;;;15.26;48.95;101816.53;4130828;28;20042;-86
2021/06/22 06:23:56;;;;;;;14.73;9.63;;;;;;;15.28;47.97;101806.94;4133497;28;20042;-88
2021/06/22 06:25:57;;;;;;;14.90;10.77;;;;;;;15.60;48.27;101822.47;4123998;28;20041;-88
2021/06/22 06:28:04;;;;;;;17.50;9.73;;;;;;;15.90;47.50;101818.91;4114544;28;20396;-92
2021/06/22 06:30:09;;;;;;;17.85;9.45;;;;;;;16.84;46.67;101821.84;4130556;28;20076;-88
2021/06/22 06:32:09;;;;;;;15.30;8.48;;;;;;;18.03;42.68;101810.41;4120900;28;20066;-87
2021/06/22 06:34:10;;;;;;;14.25;8.60;;;;;;;18.38;41.08;101820.47;4118994;28;20744;-90
2021/06/22 06:36:10;;;;;;;11.27;8.02;;;;;;;19.44;40.57;101816.75;4137005;28;20117;-88
2021/06/22 06:38:11;;;;;;;13.70;9.23;;;;;;;20.38;37.88;101811.03;4118714;28;20079;-89
2021/06/22 06:40:11;;;;;;;11.35;7.85;;;;;;;20.55;35.85;101819.22;4136443;28;20030;-88
2021/06/22 06:42:12;;;;;;;15.23;7.82;;;;;;;20.26;37.07;101814.00;4132557;28;20518;-87
2021/06/22 06:44:12;;;;;;;12.98;8.00;;;;;;;20.88;36.18;101804.16;4108245;28;20202;-93
2021/06/22 06:46:13;;;;;;;14.75;7.85;;;;;;;20.95;37.46;101809.50;4111783;28;20030;-87
2021/06/22 06:48:13;;;;;;;10.75;7.28;;;;;;;20.75;35.48;101824.13;4093052;28;20047;-91
2021/06/22 06:50:14;;;;;;;17.17;6.40;;;;;;;19.93;37.44;101825.09;4119866;28;20126;-86
2021/06/22 06:52:15;;;;;;;9.13;6.53;;;;;;;20.28;36.68;101818.19;4117571;28;20765;-88
2021/06/22 06:54:16;;;;;;;10.98;6.18;;;;;;;20.21;37.58;101830.63;4112041;28;20057;-87
2021/06/22 06:56:16;;;;;;;11.20;5.47;;;;;;;19.77;37.52;101828.75;4134545;28;20037;-88
2021/06/22 06:58:17;;;;;;;10.65;6.10;;;;;;;20.14;37.78;101819.72;4126693;28;20039;-90
2021/06/22 07:00:18;;;;;;;10.32;6.25;;;;;;;19.95;37.53;101825.66;4106087;28;20039;-86
2021/06/22 07:02:19;;;;;;;11.68;6.60;;;;;;;19.57;38.32;101818.25;4136065;28;20817;-88
2021/06/22 07:04:19;;;;;;;11.65;5.75;;;;;;;19.36;38.26;101833.84;4121938;28;20194;-87
2021/06/22 07:06:20;;;;;;;11.35;5.53;;;;;;;19.28;39.24;101820.41;4094514;28;20121;-90
2021/06/22 07:08:20;;;;;;;11.00;5.10;;;;;;;18.62;38.43;101833.06;4094481;28;20060;-90
2021/06/22 07:10:21;;;;;;;12.65;5.60;;;;;;;18.40;39.09;101846.00;4114353;28;20038;-86
2021/06/22 07:12:21;;;;;;;9.18;5.63;;;;;;;18.27;39.02;101800.84;4121388;28;20026;-88
2021/06/22 07:14:23;;;;;;;13.15;5.97;;;;;;;17.95;41.58;101829.13;4118339;28;20061;-88
2021/06/22 07:16:24;;;;;;;14.27;6.35;;;;;;;18.15;41.87;101820.34;4114044;28;20123;-87
2021/06/22 07:18:25;;;;;;;10.70;5.90;;;;;;;18.23;40.27;101821.88;4110213;28;20034;-88
2021/06/22 07:20:25;;;;;;;9.27;5.72;;;;;;;18.56;40.32;101834.06;4132846;28;20061;-84
2021/06/22 07:22:26;;;;;;;11.90;7.05;;;;;;;18.78;39.43;101836.91;4135684;28;20124;-84
2021/06/22 07:24:26;;;;;;;9.60;5.70;;;;;;;18.46;39.71;101837.53;4132009;28;20038;-86
2021/06/22 07:26:27;;;;;;;11.98;5.93;;;;;;;18.55;39.97;101839.88;4133926;28;20065;-89
2021/06/22 07:28:27;;;;;;;7.95;5.50;;;;;;;18.43;39.07;101828.84;4142012;28;20113;-85
2021/06/22 07:30:28;;;;;;;7.78;5.30;;;;;;;18.29;39.22;101818.09;4146540;28;20030;-90
2021/06/22 07:32:28;;;;;;;7.55;5.20;;;;;;;18.41;39.85;101836.59;4138737;28;20117;-87
2021/06/22 07:34:29;;;;;;;11.10;5.53;;;;;;;18.30;40.21;101844.72;4134467;28;20211;-83
2021/06/22 07:36:29;;;;;;;11.52;5.43;;;;;;;17.85;39.56;101847.50;4143068;28;20026;-87
2021/06/22 07:38:30;;;;;;;10.32;5.40;;;;;;;18.22;39.57;101841.50;4136877;28;20769;-86
2021/06/22 07:40:30;;;;;;;9.57;4.93;;;;;;;18.54;38.89;101839.03;4133480;28;20030;-90
2021/06/22 07:42:31;;;;;;;10.50;6.20;;;;;;;18.75;38.45;101854.03;4132703;28;20121;-88
2021/06/22 07:44:31;;;;;;;12.73;7.22;;;;;;;18.56;39.79;101842.38;4140542;28;20033;-86
2021/06/22 07:46:32;;;;;;;7.95;5.10;;;;;;;17.93;40.31;101849.84;4145244;28;20026;-88
2021/06/22 07:48:33;;;;;;;7.18;5.28;;;;;;;17.55;41.25;101831.94;4122422;28;20121;-89
2021/06/22 07:50:33;;;;;;;9.18;6.13;;;;;;;17.71;42.11;101842.22;4137093;28;20049;-85
2021/06/22 07:52:34;;;;;;;9.68;5.47;;;;;;;17.54;41.94;101835.81;4146703;28;20112;-85
2021/06/22 07:54:34;;;;;;;10.40;5.60;;;;;;;17.49;43.19;101844.84;4135142;28;20535;-90
2021/06/22 07:56:35;;;;;;;8.48;4.72;;;;;;;17.48;41.96;101853.38;4134732;28;20737;-89
2021/06/22 07:58:35;;;;;;;6.20;4.65;;;;;;;17.15;41.30;101841.88;4137397;28;20030;-85
2021/06/22 08:00:41;;;;;;;8.63;5.15;;;;;;;17.34;41.48;101823.19;4141604;28;20057;-89
2021/06/22 08:02:41;;;;;;;8.65;5.65;;;;;;;18.05;40.92;101831.25;4139449;28;20589;-88
2021/06/22 08:04:41;;;;;;;11.88;5.05;;;;;;;17.91;39.96;101843.72;4130257;28;20046;-88
2021/06/22 08:06:42;;;;;;;6.70;4.13;;;;;;;17.45;40.73;101821.47;4138269;28;20096;-86
2021/06/22 08:08:42;;;;;;;8.38;5.05;;;;;;;17.34;41.61;101856.41;4132886;28;20039;-91
2021/06/22 08:10:47;;;;;;;8.85;4.72;;;;;;;17.03;41.49;101852.13;4127326;28;20152;-87
2021/06/22 08:12:48;;;;;;;6.05;4.65;;;;;;;17.08;42.63;101847.53;4142894;28;20026;-88
2021/06/22 08:14:48;;;;;;;6.22;4.65;;;;;;;17.07;41.92;101832.03;4145514;28;20080;-88
2021/06/22 08:16:49;;;;;;;7.45;4.05;;;;;;;16.83;42.32;101849.72;4131956;28;20029;-88
2021/06/22 08:18:49;;;;;;;8.98;4.82;;;;;;;16.53;41.33;101829.38;4147208;28;20333;-88
2021/06/22 08:20:50;;;;;;;9.45;4.35;;;;;;;16.53;42.48;101853.41;4137369;28;20113;-83
2021/06/22 08:22:54;;;;;;;6.53;4.85;;;;;;;16.32;44.10;101825.25;4138074;28;20038;-86
2021/06/22 08:24:54;;;;;;;9.50;5.10;;;;;;;16.95;44.70;101858.03;4135937;28;20033;-87
2021/06/22 08:26:55;;;;;;;6.70;4.10;;;;;;;17.16;42.66;101849.06;4108598;28;20386;-87
2021/06/22 08:28:55;;;;;;;7.50;4.43;;;;;;;17.25;41.95;101860.63;4120527;28;20031;-89
2021/06/22 08:30:56;;;;;;;9.68;3.90;;;;;;;17.19;40.71;101845.00;4128314;28;20031;-85
2021/06/22 08:32:57;;;;;;;7.55;4.70;;;;;;;17.37;43.09;101842.06;4135932;28;20792;-88
2021/06/22 08:34:57;;;;;;;10.57;4.82;;;;;;;17.84;41.20;101843.03;4120131;28;20090;-86
2021/06/22 08:36:59;;;;;;;8.18;5.35;;;;;;;17.46;41.08;101840.59;4101896;28;20560;-89
2021/06/22 08:38:59;;;;;;;8.68;4.22;;;;;;;17.76;40.77;101842.31;4111835;28;20031;-86
2021/06/22 08:41:00;;;;;;;11.40;5.35;;;;;;;17.28;42.21;101849.91;4138156;28;20026;-87
2021/06/22 08:43:00;;;;;;;9.10;5.28;;;;;;;16.95;44.32;101845.03;4143104;28;20056;-89
2021/06/22 08:45:03;;;;;;;8.88;5.03;;;;;;;16.39;45.42;101828.75;4097375;28;20093;-87
2021/06/22 08:47:04;;;;;;;10.50;5.32;;;;;;;16.22;44.64;101849.88;4118204;28;20078;-91
2021/06/22 08:49:05;;;;;;;12.05;6.00;;;;;;;16.18;45.29;101832.91;4109929;28;20039;-87
2021/06/22 08:51:05;;;;;;;9.23;4.90;;;;;;;16.17;44.80;101856.09;4139066;28;20053;-85
2021/06/22 08:53:07;;;;;;;8.65;5.32;;;;;;;16.32;44.68;101855.63;4137583;28;20030;-89
2021/06/22 08:55:25;;;;;;;8.18;4.63;;;;;;;16.41;45.41;101842.31;4142240;28;20331;-89
2021/06/22 08:57:26;;;;;;;11.73;6.30;;;;;;;16.58;45.43;101848.00;4135960;28;20030;-86
2021/06/22 08:59:26;;;;;;;8.70;5.38;;;;;;;16.64;45.06;101841.50;4133633;28;20519;-87
2021/06/22 09:01:27;;;;;;;11.55;5.43;;;;;;;16.90;44.24;101851.28;4111421;28;20037;-89
2021/06/22 09:03:28;;;;;;;7.68;6.00;;;;;;;16.85;44.24;101842.88;4109034;28;20035;-88
2021/06/22 09:05:29;;;;;;;12.73;5.25;;;;;;;16.99;44.90;101862.84;4122045;28;20039;-90
2021/06/22 09:07:53;;;;;;;6.18;4.82;;;;;;;17.46;43.20;101854.44;4119447;28;20223;-86
2021/06/22 09:09:54;;;;;;;8.07;4.75;;;;;;;17.64;41.99;101849.84;4138743;28;20059;-89
2021/06/22 09:12:10;;;;;;;9.90;5.40;;;;;;;17.54;41.80;101847.72;4137691;28;20030;-87
2021/06/22 09:14:13;;;;;;;13.07;4.80;;;;;;;17.40;41.63;101851.81;4141877;28;20038;-88
2021/06/22 09:16:15;;;;;;;11.80;5.50;;;;;;;17.26;41.46;101849.31;4135927;28;20110;-87
2021/06/22 09:18:37;;;;;;;10.70;4.78;;;;;;;17.24;41.95;101843.19;4135216;28;20018;-89
2021/06/22 09:20:42;;;;;;;8.70;4.93;;;;;;;17.14;42.25;101842.94;4130249;28;20073;-85